Reklama

Seznam meteostanic a jejich METAR

Vyhledat místa podle abecedy:
A B C D E F G H I J K L M N O P Q R S T U V W X Y Z

Filtrovat:

ID stanice:
a/nebo
Název místa (fulltext):
 
Místo (ID)Naposledy načteno 
Wake Island (PWAK) 31.05.2020 00:58 UTC Zobrazit METAR
PWAK 310058Z AUTO 06012KT 9999 FEW020 SCT250 SCT340 32/23 A3004 RMK AO2 SLP179 T03180228 $
Warsaw (EPWA) 31.05.2020 01:00 UTC Zobrazit METAR
EPWA 310100Z 35015KT 9999 FEW014 SCT042 12/10 Q1010 NOSIG
Washington (KIAD) 31.05.2020 00:52 UTC Zobrazit METAR
KIAD 310052Z 33008KT 10SM FEW100 24/09 A2997 RMK AO2 SLP144 T02390094
Wellington (NZWN) 30.05.2020 22:00 UTC Zobrazit METAR
NZWN 302200Z AUTO 16007KT 9999 BKN029/// 13/10 Q1031 NOSIG
Windhoek (FYWH) 30.05.2020 18:00 UTC Zobrazit METAR
FYWH 301800Z VRB03KT CAVOK 10/M06 Q1027 NOSIG
Wroclaw (EPWR) 31.05.2020 01:00 UTC Zobrazit METAR
EPWR 310100Z 32009KT CAVOK 12/05 Q1017
Reklama

Lunární kalendář

  • 05.06.Fáze měsíce uplnek
  • 13.06.Fáze měsíce posl_ctvrt
  • 21.06.Fáze měsíce nov
  • 28.06.Fáze měsíce prv_ctvrt



Reklama
Meteodomečky

Počasí na Váš email

Emaily jsou bez reklamy a bez spamu



Odhlásit newsletter

Reklama


Další české internetové stránky (nejen) o počasí najdete v katalogu TOPlist - weby o počasí nebo vyhledejte na internetu, co jste tu na 🌞 Slunečnu ⛅ zatím nenašli:

Reklama